createdAt,value
2023-03-10T00:00:56.779Z,98952.28
2023-03-10T00:03:25.097Z,98944.25
2023-03-10T00:05:53.283Z,98945.09
2023-03-10T00:08:21.476Z,98939.94
2023-03-10T00:10:49.770Z,98859.88
2023-03-10T00:13:17.987Z,98939.94
2023-03-10T00:15:46.243Z,98933.75
2023-03-10T00:18:16.533Z,98878.69
2023-03-10T00:20:44.861Z,98945.28
2023-03-10T00:23:13.105Z,98940.91
2023-03-10T00:25:41.347Z,98935.75
2023-03-10T00:28:09.485Z,98934.59
2023-03-10T00:30:37.830Z,98929.22
2023-03-10T00:33:06.025Z,98927.53
2023-03-10T00:35:35.688Z,98923.22
2023-03-10T00:38:03.902Z,98926.56
2023-03-10T00:40:32.195Z,98920.19
2023-03-10T00:43:00.405Z,98918.53
2023-03-10T00:45:28.776Z,98913.19
2023-03-10T00:47:57.048Z,98910.84
2023-03-10T00:50:25.291Z,98835.16
2023-03-10T00:52:54.923Z,98912.34
2023-03-10T00:55:22.986Z,98911.50
2023-03-10T00:57:51.620Z,98909.00
2023-03-10T01:00:20.838Z,98910.19
2023-03-10T01:02:51.592Z,98916.84
2023-03-10T01:05:20.005Z,98814.19
2023-03-10T01:07:48.191Z,98919.53
2023-03-10T01:10:18.849Z,98906.16
2023-03-10T01:12:47.491Z,98896.47
2023-03-10T01:15:15.639Z,98890.44
2023-03-10T01:17:43.918Z,98785.50
2023-03-10T01:20:15.314Z,98901.16
2023-03-10T01:22:43.652Z,98899.97
2023-03-10T01:25:14.950Z,98896.47
2023-03-10T01:27:45.258Z,98882.09
2023-03-10T01:30:14.654Z,98727.50
2023-03-10T01:32:43.100Z,98890.44
2023-03-10T01:35:12.418Z,98894.81
2023-03-10T01:37:41.507Z,98895.78
2023-03-10T01:40:16.651Z,98893.78
2023-03-10T01:42:46.509Z,98900.16
2023-03-10T01:45:48.222Z,98888.78
2023-03-10T01:48:18.598Z,98886.78
2023-03-10T01:50:50.413Z,98881.78
2023-03-10T01:53:20.823Z,98797.13
2023-03-10T01:55:53.239Z,98891.28
2023-03-10T01:58:28.512Z,98877.91
2023-03-10T02:00:56.955Z,98889.47
2023-03-10T02:03:28.407Z,98756.19
2023-03-10T02:06:00.766Z,98886.78
2023-03-10T02:08:34.730Z,98883.44
2023-03-10T02:11:03.317Z,98878.44
2023-03-10T02:13:32.938Z,98881.44
2023-03-10T02:16:01.438Z,98877.25
2023-03-10T02:18:31.846Z,98881.44
2023-03-10T02:21:12.549Z,98793.09
2023-03-10T02:24:00.221Z,98858.22
2023-03-10T02:26:37.512Z,98865.38
2023-03-10T02:29:11.636Z,98863.69
2023-03-10T02:31:40.215Z,98865.38
2023-03-10T02:34:09.248Z,98783.09
2023-03-10T02:36:37.500Z,98831.69
2023-03-10T02:39:05.924Z,98855.84
2023-03-10T02:41:37.378Z,98857.72
2023-03-10T02:44:10.850Z,98856.69
2023-03-10T02:46:39.660Z,98845.66
2023-03-10T02:49:10.761Z,98856.03
2023-03-10T02:51:41.982Z,98768.69
2023-03-10T02:54:10.806Z,98847.66
2023-03-10T02:56:39.456Z,98846.00
2023-03-10T02:59:09.982Z,98848.00
2023-03-10T03:01:38.390Z,98848.00
2023-03-10T03:04:06.777Z,98770.69
2023-03-10T03:06:35.170Z,98844.00
2023-03-10T03:09:03.543Z,98849.34
2023-03-10T03:11:31.739Z,98849.34
2023-03-10T03:14:00.065Z,98851.00
2023-03-10T03:16:29.860Z,98840.31
2023-03-10T03:18:58.208Z,98844.00
2023-03-10T03:21:27.534Z,98844.00
2023-03-10T03:23:55.894Z,98845.66
2023-03-10T03:26:25.719Z,98848.31
2023-03-10T03:28:54.065Z,98851.00
2023-03-10T03:31:25.164Z,98839.81
2023-03-10T03:33:55.118Z,98851.84
2023-03-10T03:36:23.711Z,98846.00
2023-03-10T03:38:51.837Z,98845.66
2023-03-10T03:41:20.022Z,98844.00
2023-03-10T03:43:48.168Z,98848.50
2023-03-10T03:46:16.583Z,98847.66
2023-03-10T03:48:44.781Z,98854.69
2023-03-10T03:51:14.811Z,98849.34
2023-03-10T03:53:43.947Z,98853.00
2023-03-10T03:56:12.098Z,98844.97
2023-03-10T03:58:40.310Z,98850.50
2023-03-10T04:01:08.489Z,98743.44
2023-03-10T04:03:37.911Z,98856.53
2023-03-10T04:06:08.215Z,98858.34
2023-03-10T04:08:38.026Z,98860.03
2023-03-10T04:11:07.064Z,98737.78
2023-03-10T04:13:35.383Z,98859.19
2023-03-10T04:16:03.586Z,98855.69
2023-03-10T04:18:31.840Z,98858.34
2023-03-10T04:21:00.019Z,98853.00
2023-03-10T04:23:28.475Z,98802.09
2023-03-10T04:25:58.068Z,98864.53
2023-03-10T04:28:26.320Z,98852.03
2023-03-10T04:30:54.586Z,98860.03
2023-03-10T04:33:22.760Z,98860.03
2023-03-10T04:35:51.663Z,98860.03
2023-03-10T04:38:20.111Z,98753.47
2023-03-10T04:40:54.974Z,98738.78
2023-03-10T04:43:25.056Z,98866.38
2023-03-10T04:45:53.283Z,98860.03
2023-03-10T04:48:21.478Z,98862.03
2023-03-10T04:50:56.755Z,98861.03
2023-03-10T04:53:25.447Z,98831.19
2023-03-10T04:55:53.715Z,98874.41
2023-03-10T04:58:22.988Z,98860.72
2023-03-10T05:01:02.847Z,98870.41
2023-03-10T05:03:32.201Z,98738.53
2023-03-10T05:06:00.670Z,98862.41
2023-03-10T05:08:29.497Z,98860.41
2023-03-10T05:10:59.256Z,98876.44
2023-03-10T05:13:30.115Z,98873.75
2023-03-10T05:16:01.096Z,98864.38
2023-03-10T05:18:29.925Z,98782.41
2023-03-10T05:20:59.416Z,98870.41
2023-03-10T05:23:27.717Z,98873.59
2023-03-10T05:25:55.836Z,98865.75
2023-03-10T05:28:24.345Z,98871.09
2023-03-10T05:30:52.576Z,98868.41
2023-03-10T05:33:22.216Z,98881.78
2023-03-10T05:35:50.808Z,98876.44
2023-03-10T05:38:19.649Z,98798.94
2023-03-10T05:40:47.824Z,98866.06
2023-03-10T05:43:17.750Z,98860.41
2023-03-10T05:45:46.264Z,98786.78
2023-03-10T05:48:14.339Z,98865.75
2023-03-10T05:50:44.048Z,98699.84
2023-03-10T05:53:12.189Z,98868.25
2023-03-10T05:55:40.455Z,98866.56
2023-03-10T05:58:09.162Z,98868.41
2023-03-10T06:00:37.455Z,98867.41
2023-03-10T06:03:06.111Z,98861.53
2023-03-10T06:05:34.273Z,98864.72
2023-03-10T06:08:04.132Z,98871.09
2023-03-10T06:10:32.368Z,98866.56
2023-03-10T06:13:01.280Z,98858.72
2023-03-10T06:15:29.431Z,98868.25
2023-03-10T06:17:57.921Z,98865.75
2023-03-10T06:20:26.177Z,98879.75
2023-03-10T06:22:54.570Z,98869.72
2023-03-10T06:25:24.206Z,98878.94
2023-03-10T06:27:52.397Z,98879.75
2023-03-10T06:30:21.058Z,98886.78
2023-03-10T06:32:49.351Z,98795.47
2023-03-10T06:35:17.809Z,98885.44
2023-03-10T06:37:46.052Z,98889.81
2023-03-10T06:40:15.458Z,98898.66
2023-03-10T06:42:45.889Z,98887.94
2023-03-10T06:45:17.381Z,98892.47
2023-03-10T06:47:45.766Z,98897.84
2023-03-10T06:50:14.898Z,98908.53
2023-03-10T06:52:43.506Z,98905.19
2023-03-10T06:55:13.923Z,98903.19
2023-03-10T06:57:42.289Z,98910.19
2023-03-10T07:00:15.877Z,98828.84
2023-03-10T07:02:44.430Z,98910.19
2023-03-10T07:05:14.163Z,98852.53
2023-03-10T07:07:42.683Z,98759.06
2023-03-10T07:10:12.280Z,98924.22
2023-03-10T07:12:40.504Z,98913.88
2023-03-10T07:15:09.908Z,98862.72
2023-03-10T07:17:40.760Z,98923.72
2023-03-10T07:20:10.619Z,98841.53
2023-03-10T07:22:39.058Z,98853.22
2023-03-10T07:25:08.135Z,98860.94
2023-03-10T07:27:36.612Z,98934.75
2023-03-10T07:30:05.571Z,98782.13
2023-03-10T07:32:34.074Z,98869.25
2023-03-10T07:35:04.096Z,98950.97
2023-03-10T07:37:32.455Z,98943.94
2023-03-10T07:40:00.522Z,98943.13
2023-03-10T07:42:28.677Z,98956.31
2023-03-10T07:44:56.825Z,98804.28
2023-03-10T07:47:24.973Z,98814.94
2023-03-10T07:49:53.145Z,98957.47
2023-03-10T07:52:23.276Z,98819.66
2023-03-10T07:54:51.501Z,98953.81
2023-03-10T07:57:19.574Z,98958.31
2023-03-10T07:59:47.712Z,98960.81
2023-03-10T08:02:16.619Z,98959.81
2023-03-10T08:04:45.266Z,98880.66
2023-03-10T08:07:13.554Z,98962.66
2023-03-10T08:09:43.144Z,98960.00
2023-03-10T08:12:11.549Z,98876.28
2023-03-10T08:14:40.183Z,98938.47
2023-03-10T08:17:08.428Z,98953.81
2023-03-10T08:19:39.112Z,98949.63
2023-03-10T08:22:07.599Z,98950.31
2023-03-10T08:24:37.800Z,98956.50
2023-03-10T08:27:07.981Z,98870.78
2023-03-10T08:29:36.540Z,98884.13
2023-03-10T08:32:06.504Z,98962.03
2023-03-10T08:34:35.678Z,98954.16
2023-03-10T08:37:04.327Z,98963.69
2023-03-10T08:39:32.482Z,98967.38
2023-03-10T08:42:00.607Z,98964.03
2023-03-10T08:44:30.404Z,98968.19
2023-03-10T08:46:59.584Z,98981.38
2023-03-10T08:49:27.791Z,98980.91
2023-03-10T08:51:55.978Z,98977.91
2023-03-10T08:54:25.050Z,98987.56
2023-03-10T08:56:53.508Z,98915.00
2023-03-10T08:59:21.849Z,99004.47
2023-03-10T09:01:51.460Z,98992.94
2023-03-10T09:04:20.025Z,99001.97
2023-03-10T09:06:48.540Z,99000.09
2023-03-10T09:09:16.678Z,99009.81
2023-03-10T09:11:44.909Z,98919.03
2023-03-10T09:14:16.978Z,99011.81
2023-03-10T09:16:45.386Z,98999.13
2023-03-10T09:19:15.207Z,99010.81
2023-03-10T09:21:43.334Z,99008.13
2023-03-10T09:24:12.161Z,99015.16
2023-03-10T09:26:42.805Z,99010.16
2023-03-10T09:29:12.423Z,99025.88
2023-03-10T09:31:40.627Z,99014.31
2023-03-10T09:34:09.454Z,99023.19
2023-03-10T09:36:39.747Z,99027.53
2023-03-10T09:39:08.078Z,98952.75
2023-03-10T09:42:03.114Z,99028.53
2023-03-10T09:44:43.302Z,98973.97
2023-03-10T09:47:26.237Z,99046.41
2023-03-10T09:50:12.411Z,98954.97
2023-03-10T09:52:46.475Z,99048.25
2023-03-10T09:55:21.681Z,99046.41
2023-03-10T09:57:52.364Z,98983.84
2023-03-10T10:00:24.742Z,99051.25
2023-03-10T10:03:01.515Z,98903.72
2023-03-10T10:05:33.748Z,99053.75
2023-03-10T10:08:14.149Z,98969.47
2023-03-10T10:10:43.678Z,98986.84
2023-03-10T10:13:15.784Z,99061.63
2023-03-10T10:15:49.990Z,98893.38
2023-03-10T10:18:26.984Z,99063.66
2023-03-10T10:21:00.757Z,98989.53
2023-03-10T10:23:40.525Z,98951.16
2023-03-10T10:26:13.930Z,99061.16
2023-03-10T10:28:48.228Z,99022.25
2023-03-10T10:31:20.710Z,99063.31
2023-03-10T10:33:58.912Z,98964.16
2023-03-10T10:36:29.237Z,99073.00
2023-03-10T10:38:59.967Z,98992.03
2023-03-10T10:41:30.481Z,99081.00
2023-03-10T10:44:06.861Z,99009.91
2023-03-10T10:46:35.315Z,98960.16
2023-03-10T10:49:09.381Z,99077.03
2023-03-10T10:51:38.934Z,99095.41
2023-03-10T10:54:28.730Z,99083.00
2023-03-10T10:56:58.975Z,99089.22
2023-03-10T10:59:31.751Z,99084.72
2023-03-10T11:02:01.897Z,99061.28
2023-03-10T11:04:41.728Z,99087.38
2023-03-10T11:07:12.793Z,99083.69
2023-03-10T11:09:43.076Z,99086.38
2023-03-10T11:12:20.289Z,99097.06
2023-03-10T11:15:02.035Z,99013.25
2023-03-10T11:17:34.898Z,99091.72
2023-03-10T11:20:14.147Z,99090.06
2023-03-10T11:22:46.368Z,99092.72
2023-03-10T11:25:27.423Z,99012.41
2023-03-10T11:28:06.305Z,99088.38
2023-03-10T11:30:38.212Z,99020.59
2023-03-10T11:33:23.010Z,98935.13
2023-03-10T11:35:53.464Z,99095.41
2023-03-10T11:38:39.228Z,99090.88
2023-03-10T11:41:14.533Z,99086.34
2023-03-10T11:43:57.371Z,99095.41
2023-03-10T11:46:30.374Z,99095.41
2023-03-10T11:49:06.889Z,99090.06
2023-03-10T11:51:40.024Z,99098.09
2023-03-10T11:54:18.136Z,99089.56
2023-03-10T11:56:49.867Z,99014.41
2023-03-10T11:59:22.784Z,99090.88
2023-03-10T12:01:56.199Z,99000.03
2023-03-10T12:04:28.605Z,99000.22
2023-03-10T12:07:00.867Z,99013.59
2023-03-10T12:09:40.639Z,99097.41
2023-03-10T12:12:15.615Z,99095.41
2023-03-10T12:14:45.485Z,99096.22
2023-03-10T12:17:16.059Z,99103.44
2023-03-10T12:20:12.295Z,99102.41
2023-03-10T12:22:41.691Z,99100.75
2023-03-10T12:25:42.965Z,99102.41
2023-03-10T12:28:24.863Z,99098.09
2023-03-10T12:30:56.573Z,99107.75
2023-03-10T12:33:47.729Z,99098.09
2023-03-10T12:36:27.160Z,98942.16
2023-03-10T12:38:57.798Z,99097.22
2023-03-10T12:41:46.711Z,99099.06
2023-03-10T12:44:45.389Z,99011.25
2023-03-10T12:47:22.791Z,99088.69
2023-03-10T12:49:55.930Z,99092.06
2023-03-10T12:52:32.341Z,99095.41
2023-03-10T12:55:26.430Z,99068.63
2023-03-10T12:58:15.031Z,99017.22
2023-03-10T13:00:54.900Z,99008.22
2023-03-10T13:03:32.832Z,99010.56
2023-03-10T13:06:05.376Z,99007.91
2023-03-10T13:08:43.913Z,99106.09
2023-03-10T13:11:25.433Z,99111.44
2023-03-10T13:13:58.646Z,99102.75
2023-03-10T13:16:28.780Z,99107.09
2023-03-10T13:18:57.097Z,99107.09
2023-03-10T13:21:29.664Z,99111.44
2023-03-10T13:23:58.260Z,99105.44
2023-03-10T13:26:27.697Z,99106.09
2023-03-10T13:28:57.892Z,99114.13
2023-03-10T13:31:30.378Z,98951.78
2023-03-10T13:33:59.151Z,99113.44
2023-03-10T13:36:33.226Z,99107.75
2023-03-10T13:39:03.652Z,99118.47
2023-03-10T13:41:37.546Z,99111.28
2023-03-10T13:44:05.870Z,99106.91
2023-03-10T13:46:35.985Z,99115.78
2023-03-10T13:49:08.265Z,99109.41
2023-03-10T13:51:39.227Z,99113.97
2023-03-10T13:54:20.726Z,99106.44
2023-03-10T13:56:51.425Z,99107.75
2023-03-10T13:59:23.144Z,99103.44
2023-03-10T14:01:55.719Z,98936.78
2023-03-10T14:04:43.024Z,99113.13
2023-03-10T14:07:12.831Z,99120.81
2023-03-10T14:09:41.066Z,99106.09
2023-03-10T14:12:30.045Z,99107.75
2023-03-10T14:15:10.776Z,99108.78
2023-03-10T14:17:39.561Z,99095.41
2023-03-10T14:20:10.133Z,99098.41
2023-03-10T14:22:41.496Z,99095.41
2023-03-10T14:25:19.044Z,99104.41
2023-03-10T14:27:57.748Z,99087.69
2023-03-10T14:30:30.002Z,99105.09
2023-03-10T14:32:59.996Z,98989.03
2023-03-10T14:35:30.122Z,99105.94
2023-03-10T14:37:59.365Z,99088.72
2023-03-10T14:40:27.744Z,99114.78
2023-03-10T14:43:00.510Z,99009.25
2023-03-10T14:45:33.373Z,99109.41
2023-03-10T14:48:03.678Z,99030.94
2023-03-10T14:50:32.746Z,99108.09
2023-03-10T14:53:00.900Z,99119.31
2023-03-10T14:55:30.279Z,99109.41
2023-03-10T14:58:02.218Z,99094.41
2023-03-10T15:00:32.792Z,99107.75
2023-03-10T15:03:01.230Z,99021.25
2023-03-10T15:05:46.933Z,99103.25
2023-03-10T15:08:16.423Z,99018.59
2023-03-10T15:10:48.973Z,99099.06
2023-03-10T15:13:18.516Z,99101.41
2023-03-10T15:15:49.365Z,99094.22
2023-03-10T15:18:20.384Z,99098.72
2023-03-10T15:20:48.707Z,98960.34
2023-03-10T15:23:19.840Z,99113.13
2023-03-10T15:25:49.040Z,99098.72
2023-03-10T15:28:17.308Z,99111.28
2023-03-10T15:30:46.081Z,99105.09
2023-03-10T15:33:15.746Z,99102.41
2023-03-10T15:35:44.628Z,99093.03
2023-03-10T15:38:15.659Z,99120.13
2023-03-10T15:40:44.286Z,99113.97
2023-03-10T15:43:12.418Z,99029.28
2023-03-10T15:45:42.904Z,99114.78
2023-03-10T15:48:11.929Z,99115.97
2023-03-10T15:50:47.136Z,99120.97
2023-03-10T15:53:15.992Z,99120.97
2023-03-10T15:55:44.358Z,99114.78
2023-03-10T15:58:13.249Z,99120.13
2023-03-10T16:00:43.936Z,99053.47
2023-03-10T16:03:18.086Z,99028.94
2023-03-10T16:05:50.925Z,98948.47
2023-03-10T16:08:19.445Z,99120.13
2023-03-10T16:10:56.850Z,99127.16
2023-03-10T16:13:25.303Z,98971.84
2023-03-10T16:15:54.021Z,99130.81
2023-03-10T16:18:22.369Z,99124.50
2023-03-10T16:20:58.761Z,99127.16
2023-03-10T16:23:27.677Z,99122.78
2023-03-10T16:26:16.081Z,99136.16
2023-03-10T16:28:46.559Z,99135.53
2023-03-10T16:31:16.971Z,99140.72
2023-03-10T16:33:47.239Z,99129.16
2023-03-10T16:36:19.195Z,99133.50
2023-03-10T16:38:47.843Z,99133.84
2023-03-10T16:41:16.009Z,99139.88
2023-03-10T16:43:44.615Z,98995.88
2023-03-10T16:46:15.827Z,99046.31
2023-03-10T16:48:46.063Z,99152.22
2023-03-10T16:51:27.656Z,99146.88
2023-03-10T16:53:57.959Z,99000.59
2023-03-10T16:56:27.082Z,99149.53
2023-03-10T16:58:55.265Z,99157.56
2023-03-10T17:01:25.207Z,99013.88
2023-03-10T17:03:54.544Z,99178.97
2023-03-10T17:06:24.893Z,99170.13
2023-03-10T17:08:54.876Z,99178.97
2023-03-10T17:11:25.438Z,99016.94
2023-03-10T17:13:55.194Z,99178.97
2023-03-10T17:16:28.360Z,99178.97
2023-03-10T17:18:58.178Z,99040.66
2023-03-10T17:21:28.114Z,99102.09
2023-03-10T17:23:57.818Z,99184.31
2023-03-10T17:26:26.652Z,99186.00
2023-03-10T17:28:54.768Z,99181.66
2023-03-10T17:31:27.191Z,99175.66
2023-03-10T17:33:57.122Z,99178.97
2023-03-10T17:36:25.636Z,99184.31
2023-03-10T17:38:54.124Z,99184.66
2023-03-10T17:41:24.573Z,99184.31
2023-03-10T17:43:54.827Z,99195.03
2023-03-10T17:46:25.161Z,99189.66
2023-03-10T17:48:53.577Z,99196.72
2023-03-10T17:51:23.659Z,99196.72
2023-03-10T17:53:52.773Z,99194.88
2023-03-10T17:56:22.267Z,99135.50
2023-03-10T17:58:54.283Z,99198.72
2023-03-10T18:01:26.122Z,99208.56
2023-03-10T18:03:54.407Z,99205.72
2023-03-10T18:06:24.885Z,99212.75
2023-03-10T18:08:56.056Z,99212.75
2023-03-10T18:11:25.812Z,99205.72
2023-03-10T18:13:55.821Z,99054.97
2023-03-10T18:16:26.568Z,99205.72
2023-03-10T18:18:55.721Z,99210.09
2023-03-10T18:21:24.403Z,99202.06
2023-03-10T18:23:52.662Z,99200.69
2023-03-10T18:26:23.562Z,99137.50
2023-03-10T18:28:52.278Z,99209.41
2023-03-10T18:31:24.859Z,99119.13
2023-03-10T18:33:53.180Z,99200.38
2023-03-10T18:36:23.913Z,99195.03
2023-03-10T18:38:54.063Z,99195.88
2023-03-10T18:41:24.561Z,99195.03
2023-03-10T18:43:53.022Z,99202.06
2023-03-10T18:46:23.306Z,99071.03
2023-03-10T18:48:56.026Z,99183.69
2023-03-10T18:51:25.646Z,99186.81
2023-03-10T18:53:54.923Z,99189.66
2023-03-10T18:56:26.048Z,99023.56
2023-03-10T18:58:54.469Z,99191.38
2023-03-10T19:01:24.040Z,99188.69
2023-03-10T19:03:52.259Z,99190.50
2023-03-10T19:06:20.545Z,99188.69
2023-03-10T19:08:48.823Z,99107.59
2023-03-10T19:11:17.291Z,99184.31
2023-03-10T19:13:45.472Z,99103.09
2023-03-10T19:16:13.806Z,99195.03
2023-03-10T19:18:43.789Z,99200.38
2023-03-10T19:21:13.231Z,99189.66
2023-03-10T19:23:44.144Z,99189.66
2023-03-10T19:26:13.389Z,99184.31
2023-03-10T19:28:41.550Z,99182.66
2023-03-10T19:31:11.643Z,99188.00
2023-03-10T19:33:40.963Z,99188.00
2023-03-10T19:36:13.519Z,99188.00
2023-03-10T19:38:43.653Z,99187.16
2023-03-10T19:41:14.352Z,99194.19
2023-03-10T19:43:42.946Z,99191.53
2023-03-10T19:46:13.234Z,99183.00
2023-03-10T19:48:42.046Z,99047.66
2023-03-10T19:51:20.561Z,99186.34
2023-03-10T19:53:49.243Z,99174.28
2023-03-10T19:56:19.259Z,99195.88
2023-03-10T19:58:48.877Z,99190.69
2023-03-10T20:01:18.212Z,99027.25
2023-03-10T20:03:46.707Z,99190.69
2023-03-10T20:06:16.302Z,99203.03
2023-03-10T20:08:44.863Z,99193.34
2023-03-10T20:11:15.215Z,99193.69
2023-03-10T20:13:44.457Z,99204.06
2023-03-10T20:16:15.224Z,99204.06
2023-03-10T20:18:43.722Z,99065.69
2023-03-10T20:21:11.833Z,99202.41
2023-03-10T20:23:41.415Z,99207.03
2023-03-10T20:26:11.339Z,99211.22
2023-03-10T20:28:40.620Z,99141.19
2023-03-10T20:31:09.473Z,99214.75
2023-03-10T20:33:37.820Z,99214.75
2023-03-10T20:36:08.711Z,99150.19
2023-03-10T20:38:37.378Z,99165.25
2023-03-10T20:41:07.094Z,99231.66
2023-03-10T20:43:35.860Z,99234.50
2023-03-10T20:46:04.376Z,99236.16
2023-03-10T20:48:33.563Z,99241.50
2023-03-10T20:51:03.083Z,99241.50
2023-03-10T20:53:37.478Z,99243.50
2023-03-10T20:56:11.216Z,99252.19
2023-03-10T20:58:39.635Z,99180.63
2023-03-10T21:01:07.805Z,99166.41
2023-03-10T21:03:35.908Z,99263.75
2023-03-10T21:06:04.107Z,99259.53
2023-03-10T21:08:32.815Z,99261.25
2023-03-10T21:11:00.974Z,99252.53
2023-03-10T21:13:30.883Z,99262.06
2023-03-10T21:15:59.683Z,99263.91
2023-03-10T21:18:27.878Z,99252.19
2023-03-10T21:20:56.106Z,99177.25
2023-03-10T21:23:24.424Z,99255.91
2023-03-10T21:25:52.520Z,99253.56
2023-03-10T21:28:20.645Z,99262.91
2023-03-10T21:30:50.188Z,99104.91
2023-03-10T21:33:18.296Z,99264.91
2023-03-10T21:35:46.451Z,99261.25
2023-03-10T21:38:14.701Z,99268.25
2023-03-10T21:40:43.057Z,99269.91
2023-03-10T21:43:11.811Z,99263.91
2023-03-10T21:45:39.866Z,99255.38
2023-03-10T21:48:11.704Z,99259.53
2023-03-10T21:50:40.074Z,99178.25
2023-03-10T21:53:08.841Z,99268.25
2023-03-10T21:55:38.514Z,99184.28
2023-03-10T21:58:06.958Z,99194.66
2023-03-10T22:00:36.235Z,99271.94
2023-03-10T22:03:05.597Z,99265.56
2023-03-10T22:05:35.113Z,99262.91
2023-03-10T22:08:03.345Z,99255.72
2023-03-10T22:10:31.645Z,99258.56
2023-03-10T22:13:00.042Z,99255.91
2023-03-10T22:15:28.661Z,99254.19
2023-03-10T22:17:57.088Z,99255.91
2023-03-10T22:20:27.469Z,99253.88
2023-03-10T22:22:57.449Z,99179.94
2023-03-10T22:25:26.622Z,99140.31
2023-03-10T22:27:56.312Z,99256.72
2023-03-10T22:30:27.059Z,99261.25
2023-03-10T22:32:55.550Z,99257.88
2023-03-10T22:35:23.872Z,99257.88
2023-03-10T22:37:53.435Z,99267.41
2023-03-10T22:40:25.578Z,99213.03
2023-03-10T22:42:54.266Z,99261.25
2023-03-10T22:45:24.642Z,99268.25
2023-03-10T22:47:55.835Z,99273.59
2023-03-10T22:50:26.717Z,99181.59
2023-03-10T22:52:55.304Z,99268.59
2023-03-10T22:55:25.717Z,99264.25
2023-03-10T22:57:56.641Z,99276.28
2023-03-10T23:00:24.779Z,99206.00
2023-03-10T23:02:54.009Z,99197.63
2023-03-10T23:05:22.860Z,99284.31
2023-03-10T23:07:51.585Z,99284.31
2023-03-10T23:10:22.525Z,99268.91
2023-03-10T23:12:52.791Z,99276.44
2023-03-10T23:15:25.209Z,99189.59
2023-03-10T23:17:54.381Z,99282.63
2023-03-10T23:20:24.339Z,99284.63
2023-03-10T23:22:52.620Z,99289.66
2023-03-10T23:25:24.541Z,99296.00
2023-03-10T23:27:54.145Z,99284.31
2023-03-10T23:30:22.454Z,99284.31
2023-03-10T23:32:51.870Z,99288.00
2023-03-10T23:35:21.913Z,99295.34
2023-03-10T23:37:50.068Z,99225.38
2023-03-10T23:40:20.450Z,99279.63
2023-03-10T23:42:49.018Z,99288.00
2023-03-10T23:45:21.331Z,99126.38
2023-03-10T23:47:50.854Z,99294.31
2023-03-10T23:50:21.497Z,99289.97
2023-03-10T23:52:50.391Z,99292.50
2023-03-10T23:55:21.058Z,99307.69
2023-03-10T23:57:50.088Z,99297.84
